createdAt,value
2023-03-23T15:59:40.260Z,15.86
2023-03-23T16:02:43.741Z,15.40
2023-03-23T16:05:46.737Z,16.03
2023-03-23T16:08:53.878Z,15.47
2023-03-23T16:11:57.867Z,15.84
2023-03-23T16:15:02.454Z,15.61
2023-03-23T16:18:05.479Z,15.23
2023-03-23T16:21:09.169Z,14.86
2023-03-23T16:24:12.009Z,15.06
2023-03-23T16:27:15.120Z,15.06
2023-03-23T16:30:21.476Z,14.62
2023-03-23T16:33:24.375Z,15.02
2023-03-23T16:36:27.263Z,15.43
2023-03-23T16:39:30.244Z,15.43
2023-03-23T16:42:33.123Z,15.04
2023-03-23T16:45:38.218Z,14.67
2023-03-23T16:48:41.446Z,14.97
2023-03-23T16:51:44.280Z,15.11
2023-03-23T16:54:47.273Z,15.25
2023-03-23T16:57:49.997Z,15.48
2023-03-23T17:00:54.546Z,14.62
2023-03-23T17:03:57.618Z,15.44
2023-03-23T17:07:01.029Z,15.40
2023-03-23T17:10:06.062Z,14.99
2023-03-23T17:13:09.727Z,15.28
2023-03-23T17:16:13.952Z,14.91
2023-03-23T17:19:16.855Z,15.31
2023-03-23T17:22:20.457Z,15.29
2023-03-23T17:25:23.282Z,14.71
2023-03-23T17:28:26.221Z,15.19
2023-03-23T17:31:30.480Z,14.80
2023-03-23T17:34:33.384Z,14.67
2023-03-23T17:37:37.919Z,14.87
2023-03-23T17:40:40.860Z,15.20
2023-03-23T17:43:44.075Z,14.98
2023-03-23T17:46:48.321Z,14.92
2023-03-23T17:49:51.269Z,15.17
2023-03-23T17:52:54.120Z,14.68
2023-03-23T17:55:57.637Z,14.43
2023-03-23T17:59:00.414Z,15.09
2023-03-23T18:02:04.982Z,14.85
2023-03-23T18:05:09.636Z,14.89
2023-03-23T18:08:12.694Z,14.67
2023-03-23T18:11:15.611Z,14.50
2023-03-23T18:14:18.545Z,14.53
2023-03-23T18:17:23.257Z,14.68
2023-03-23T18:20:26.231Z,14.61
2023-03-23T18:23:29.742Z,14.92
2023-03-23T18:26:32.528Z,14.83
2023-03-23T18:29:35.238Z,14.94
2023-03-23T18:32:40.552Z,14.93
2023-03-23T18:35:44.376Z,14.85
2023-03-23T18:38:48.255Z,14.91
2023-03-23T18:41:51.246Z,14.55
2023-03-23T18:44:55.252Z,14.73
2023-03-23T18:47:59.544Z,14.62
2023-03-23T18:51:02.616Z,14.66
2023-03-23T18:54:05.987Z,14.16
2023-03-23T18:57:08.887Z,14.56
2023-03-23T19:00:12.743Z,14.10
2023-03-23T19:03:17.109Z,14.65
2023-03-23T19:06:22.730Z,14.32
2023-03-23T19:09:25.920Z,14.64
2023-03-23T19:12:28.900Z,14.57
2023-03-23T19:15:31.791Z,14.68
2023-03-23T19:18:36.235Z,14.45
2023-03-23T19:21:40.444Z,14.62
2023-03-23T19:24:43.237Z,14.34
2023-03-23T19:28:23.155Z,14.49
2023-03-23T19:31:09.543Z,14.42
2023-03-23T19:34:15.134Z,14.59
2023-03-23T19:37:18.624Z,14.35
2023-03-23T19:40:36.584Z,14.21
2023-03-23T19:43:43.894Z,14.38
2023-03-23T19:46:48.403Z,14.33
2023-03-23T19:49:52.849Z,14.24
2023-03-23T19:52:58.397Z,14.39
2023-03-23T19:56:05.094Z,14.35
2023-03-23T19:59:10.617Z,13.82
2023-03-23T20:02:14.406Z,14.28
2023-03-23T20:05:19.753Z,14.30
2023-03-23T20:08:22.557Z,14.29
2023-03-23T20:11:25.434Z,14.29
2023-03-23T20:14:29.349Z,14.05
2023-03-23T20:17:33.293Z,14.23
2023-03-23T20:20:44.322Z,14.21
2023-03-23T20:23:48.863Z,14.23
2023-03-23T20:26:59.326Z,13.88
2023-03-23T20:30:20.566Z,13.92
2023-03-23T20:33:29.040Z,14.11
2023-03-23T20:36:36.311Z,14.07
2023-03-23T20:39:47.820Z,14.01
2023-03-23T20:42:54.736Z,13.91
2023-03-23T20:45:58.533Z,13.85
2023-03-23T20:49:02.450Z,13.65
2023-03-23T20:52:11.869Z,13.63
2023-03-23T20:55:15.660Z,13.68
2023-03-23T20:58:19.186Z,13.65
2023-03-23T21:01:22.465Z,13.53
2023-03-23T21:04:27.261Z,13.39
2023-03-23T21:07:31.651Z,13.44
2023-03-23T21:10:35.258Z,13.38
2023-03-23T21:13:37.957Z,13.32
2023-03-23T21:16:41.584Z,13.18
2023-03-23T21:19:44.414Z,13.20
2023-03-23T21:22:48.515Z,13.15
2023-03-23T21:25:51.328Z,13.16
2023-03-23T21:28:54.852Z,13.17
2023-03-23T21:35:04.458Z,13.06
2023-03-23T21:38:14.111Z,13.05
2023-03-23T21:41:16.815Z,13.02
2023-03-23T21:44:19.597Z,12.99
2023-03-23T21:47:22.310Z,13.12
2023-03-23T21:50:25.271Z,13.04
2023-03-23T21:53:30.935Z,13.08
2023-03-23T21:56:33.944Z,12.97
2023-03-23T21:59:36.643Z,13.02
2023-03-23T22:02:40.489Z,13.10
2023-03-23T22:05:44.132Z,12.98
2023-03-23T22:08:49.427Z,12.91
2023-03-23T22:11:52.164Z,13.12
2023-03-23T22:14:54.891Z,13.07
2023-03-23T22:17:57.670Z,13.07
2023-03-23T22:21:00.500Z,13.10
2023-03-23T22:24:05.326Z,13.14
2023-03-23T22:27:08.029Z,13.13
2023-03-23T22:30:12.142Z,13.15
2023-03-23T22:33:14.931Z,13.17
2023-03-23T22:36:18.227Z,13.23
2023-03-23T22:39:22.336Z,13.19
2023-03-23T22:42:25.192Z,13.15
2023-03-23T22:45:28.092Z,13.08
2023-03-23T22:48:31.600Z,12.88
2023-03-23T22:51:34.366Z,12.91
2023-03-23T22:54:38.386Z,12.77
2023-03-23T22:57:41.038Z,12.80
2023-03-23T23:00:46.267Z,12.70
2023-03-23T23:03:49.831Z,12.58
2023-03-23T23:07:00.424Z,12.51
2023-03-23T23:10:10.956Z,12.38
2023-03-23T23:13:14.607Z,12.29
2023-03-23T23:16:18.495Z,12.18
2023-03-23T23:19:21.322Z,12.19
2023-03-23T23:22:24.051Z,12.19
2023-03-23T23:25:28.635Z,12.21
2023-03-23T23:28:31.842Z,12.09
2023-03-23T23:31:34.650Z,12.12
2023-03-23T23:34:37.801Z,12.14
2023-03-23T23:37:40.687Z,12.19
2023-03-23T23:40:46.763Z,12.19
2023-03-23T23:43:50.027Z,12.23
2023-03-23T23:46:52.759Z,12.31
2023-03-23T23:49:55.518Z,12.32
2023-03-23T23:52:58.602Z,12.23
2023-03-23T23:56:04.394Z,12.23
2023-03-23T23:59:07.066Z,12.25
